createdAt,value
2023-05-19T00:01:43.956Z,9.86
2023-05-19T00:04:50.650Z,9.93
2023-05-19T00:07:57.122Z,9.95
2023-05-19T00:11:01.163Z,9.98
2023-05-19T00:14:09.520Z,10.00
2023-05-19T00:17:13.333Z,9.74
2023-05-19T00:20:16.669Z,9.76
2023-05-19T00:23:19.877Z,9.69
2023-05-19T00:26:23.565Z,9.70
2023-05-19T00:29:40.204Z,9.57
2023-05-19T00:32:43.438Z,9.55
2023-05-19T00:35:46.621Z,9.54
2023-05-19T00:38:51.150Z,9.64
2023-05-19T00:41:55.412Z,9.47
2023-05-19T00:44:59.911Z,9.58
2023-05-19T00:48:03.277Z,9.56
2023-05-19T00:51:06.866Z,9.34
2023-05-19T00:54:10.716Z,9.22
2023-05-19T00:57:15.706Z,9.26
2023-05-19T01:00:20.479Z,9.22
2023-05-19T01:03:26.723Z,9.16
2023-05-19T01:06:29.919Z,9.09
2023-05-19T01:09:33.236Z,9.07
2023-05-19T01:12:37.885Z,8.96
2023-05-19T01:15:59.670Z,8.81
2023-05-19T01:19:15.021Z,8.76
2023-05-19T01:22:43.722Z,8.68
2023-05-19T01:26:27.926Z,8.60
2023-05-19T01:29:43.759Z,8.62
2023-05-19T01:32:52.532Z,8.63
2023-05-19T01:35:57.392Z,8.51
2023-05-19T01:39:02.455Z,8.47
2023-05-19T01:42:07.987Z,8.41
2023-05-19T01:45:13.345Z,8.39
2023-05-19T01:48:19.741Z,8.27
2023-05-19T01:51:25.810Z,8.32
2023-05-19T01:54:29.048Z,8.33
2023-05-19T01:57:44.881Z,8.33
2023-05-19T02:00:55.114Z,8.24
2023-05-19T02:04:20.302Z,8.20
2023-05-19T02:07:34.642Z,8.15
2023-05-19T02:10:52.188Z,8.16
2023-05-19T02:13:58.260Z,8.07
2023-05-19T02:17:03.019Z,8.11
2023-05-19T02:20:11.713Z,8.12
2023-05-19T02:23:15.027Z,8.01
2023-05-19T02:26:18.414Z,8.05
2023-05-19T02:29:22.344Z,8.03
2023-05-19T02:32:29.882Z,8.10
2023-05-19T02:35:34.640Z,8.11
2023-05-19T02:38:37.921Z,8.13
2023-05-19T02:41:41.157Z,8.24
2023-05-19T02:44:45.640Z,8.29
2023-05-19T02:47:48.938Z,8.37
2023-05-19T02:50:53.462Z,8.42
2023-05-19T02:53:56.893Z,8.45
2023-05-19T02:57:00.497Z,8.53
2023-05-19T03:00:05.546Z,8.54
2023-05-19T03:03:10.394Z,8.60
2023-05-19T03:06:16.842Z,8.63
2023-05-19T03:09:23.280Z,8.52
2023-05-19T03:12:26.796Z,8.56
2023-05-19T03:15:30.726Z,8.51
2023-05-19T03:18:34.231Z,8.48
2023-05-19T03:21:38.790Z,8.43
2023-05-19T03:24:42.291Z,8.35
2023-05-19T03:27:45.681Z,8.37
2023-05-19T03:30:50.680Z,8.38
2023-05-19T03:33:58.385Z,8.51
2023-05-19T03:37:02.971Z,8.59
2023-05-19T03:40:08.911Z,8.69
2023-05-19T03:43:14.437Z,8.74
2023-05-19T03:46:23.058Z,8.75
2023-05-19T03:49:38.395Z,8.80
2023-05-19T03:53:01.810Z,8.91
2023-05-19T03:56:11.646Z,8.94
2023-05-19T03:59:16.204Z,9.02
2023-05-19T04:02:19.678Z,9.15
2023-05-19T04:05:24.612Z,9.22
2023-05-19T04:08:29.190Z,9.30
2023-05-19T04:11:32.902Z,9.36
2023-05-19T04:14:36.367Z,9.46
2023-05-19T04:17:40.022Z,9.54
2023-05-19T04:20:43.314Z,9.59
2023-05-19T04:23:47.964Z,9.60
2023-05-19T04:26:54.915Z,9.59
2023-05-19T04:29:59.522Z,9.63
2023-05-19T04:33:03.963Z,9.65
2023-05-19T04:36:10.502Z,9.59
2023-05-19T04:39:17.916Z,9.64
2023-05-19T04:42:22.470Z,9.72
2023-05-19T04:45:26.805Z,9.76
2023-05-19T04:48:33.478Z,9.76
2023-05-19T04:51:44.925Z,9.79
2023-05-19T04:54:54.664Z,9.85
2023-05-19T04:58:01.077Z,9.93
2023-05-19T05:01:05.111Z,9.93
2023-05-19T05:04:08.883Z,10.00
2023-05-19T05:07:12.712Z,10.07
2023-05-19T05:10:19.780Z,10.16
2023-05-19T05:13:26.583Z,10.23
2023-05-19T05:16:35.505Z,10.32
2023-05-19T05:20:00.129Z,10.35
2023-05-19T05:23:05.181Z,10.34
2023-05-19T05:26:18.670Z,10.34
2023-05-19T05:29:25.380Z,10.28
2023-05-19T05:32:30.071Z,10.35
2023-05-19T05:35:36.360Z,10.39
2023-05-19T05:38:40.823Z,10.47
2023-05-19T05:41:45.689Z,10.51
2023-05-19T05:44:49.729Z,10.56
2023-05-19T05:47:54.481Z,10.71
2023-05-19T05:51:01.094Z,10.81
2023-05-19T05:54:10.344Z,11.02
2023-05-19T05:57:22.179Z,11.09
2023-05-19T06:00:28.179Z,11.20
2023-05-19T06:03:32.074Z,11.37
2023-05-19T06:06:39.807Z,11.56
2023-05-19T06:09:44.270Z,11.73
2023-05-19T06:12:48.939Z,11.85
2023-05-19T06:15:53.706Z,12.07
2023-05-19T06:19:01.757Z,12.35
2023-05-19T06:22:05.788Z,12.59
2023-05-19T06:25:11.103Z,12.95
2023-05-19T06:28:16.156Z,13.09
2023-05-19T06:31:20.360Z,13.29
2023-05-19T06:34:28.539Z,13.42
2023-05-19T06:37:31.895Z,13.54
2023-05-19T06:40:38.388Z,13.67
2023-05-19T06:43:50.298Z,13.85
2023-05-19T06:46:59.500Z,13.92
2023-05-19T06:50:13.102Z,13.95
2023-05-19T06:53:33.995Z,14.20
2023-05-19T06:56:43.020Z,14.30
2023-05-19T06:59:48.577Z,14.36
2023-05-19T07:02:55.350Z,14.47
2023-05-19T07:05:58.843Z,14.73
2023-05-19T07:09:02.096Z,15.00
2023-05-19T07:12:07.477Z,15.22
2023-05-19T07:15:16.035Z,15.25
2023-05-19T07:18:20.312Z,15.34
2023-05-19T07:21:26.501Z,15.48
2023-05-19T07:24:30.560Z,15.23
2023-05-19T07:27:34.693Z,15.36
2023-05-19T07:30:39.544Z,15.67
2023-05-19T07:33:42.830Z,15.88
2023-05-19T07:36:46.257Z,15.88
2023-05-19T07:39:49.521Z,16.21
2023-05-19T07:42:55.738Z,16.36
2023-05-19T07:46:01.032Z,16.46
2023-05-19T07:49:04.635Z,16.65
2023-05-19T07:52:08.463Z,16.63
2023-05-19T07:55:15.151Z,16.47
2023-05-19T07:58:19.647Z,17.02
2023-05-19T08:01:26.992Z,16.81
2023-05-19T08:04:30.448Z,16.90
2023-05-19T08:07:33.850Z,16.84
2023-05-19T08:10:37.457Z,17.11
2023-05-19T08:14:07.214Z,17.28
2023-05-19T08:17:20.303Z,17.74
2023-05-19T08:20:26.510Z,17.95
2023-05-19T08:23:32.556Z,17.37
2023-05-19T08:26:37.737Z,17.65
2023-05-19T08:29:44.875Z,17.93
2023-05-19T08:32:49.654Z,17.84
2023-05-19T08:35:58.154Z,17.90
2023-05-19T08:39:01.498Z,18.00
2023-05-19T08:42:09.941Z,18.34
2023-05-19T08:45:25.822Z,17.89
2023-05-19T08:48:34.510Z,18.02
2023-05-19T08:51:48.434Z,18.22
2023-05-19T08:55:01.188Z,18.20
2023-05-19T08:58:05.918Z,18.12
2023-05-19T09:01:09.841Z,18.24
2023-05-19T09:04:17.950Z,18.65
2023-05-19T09:07:22.918Z,18.76
2023-05-19T09:10:28.443Z,18.77
2023-05-19T09:13:32.558Z,18.80
2023-05-19T09:16:38.769Z,18.86
2023-05-19T09:19:49.358Z,18.69
2023-05-19T09:22:53.690Z,19.34
2023-05-19T09:26:03.805Z,19.40
2023-05-19T09:29:18.212Z,19.06
2023-05-19T09:32:30.136Z,19.28
2023-05-19T09:35:38.441Z,18.90
2023-05-19T09:38:43.659Z,18.25
2023-05-19T09:41:51.312Z,18.42
2023-05-19T09:45:01.803Z,17.88
2023-05-19T09:48:10.382Z,18.07
2023-05-19T09:51:22.998Z,18.55
2023-05-19T09:54:34.953Z,19.47
2023-05-19T09:57:40.285Z,19.24
2023-05-19T10:00:44.011Z,19.19
2023-05-19T10:03:47.511Z,19.10
2023-05-19T10:06:54.405Z,19.40
2023-05-19T10:10:00.912Z,19.21
2023-05-19T10:13:06.786Z,18.59
2023-05-19T10:16:12.090Z,18.90
2023-05-19T10:19:18.617Z,19.17
2023-05-19T10:22:23.560Z,19.48
2023-05-19T10:25:37.838Z,18.93
2023-05-19T10:28:50.275Z,19.25
2023-05-19T10:31:56.693Z,19.08
2023-05-19T10:35:47.301Z,18.68
2023-05-19T10:39:03.541Z,19.13
2023-05-19T10:42:17.901Z,18.82
2023-05-19T10:45:25.235Z,18.82
2023-05-19T10:48:34.500Z,18.91
2023-05-19T10:51:38.522Z,19.22
2023-05-19T10:54:47.135Z,19.41
2023-05-19T10:57:57.661Z,19.26
2023-05-19T11:01:02.080Z,19.53
2023-05-19T11:04:12.303Z,19.52
2023-05-19T11:07:20.600Z,19.65
2023-05-19T11:10:26.271Z,19.57
2023-05-19T11:13:30.090Z,19.63
2023-05-19T11:16:34.097Z,19.43
2023-05-19T11:19:37.674Z,19.30
2023-05-19T11:22:41.503Z,19.44
2023-05-19T11:25:51.422Z,19.97
2023-05-19T11:28:55.306Z,19.96
2023-05-19T11:31:58.891Z,19.88
2023-05-19T11:35:08.248Z,19.42
2023-05-19T11:38:12.780Z,19.57
2023-05-19T11:41:20.693Z,19.16
2023-05-19T11:44:24.485Z,19.60
2023-05-19T11:47:30.797Z,19.48
2023-05-19T11:50:38.454Z,19.96
2023-05-19T11:53:42.012Z,19.96
2023-05-19T11:56:46.646Z,20.21
2023-05-19T11:59:52.376Z,19.92
2023-05-19T12:02:55.813Z,19.38
2023-05-19T12:05:59.280Z,19.57
2023-05-19T12:09:03.402Z,19.79
2023-05-19T12:12:09.175Z,20.50
2023-05-19T12:15:13.260Z,20.76
2023-05-19T12:18:16.560Z,20.94
2023-05-19T12:21:19.884Z,21.37
2023-05-19T12:24:23.466Z,20.38
2023-05-19T12:27:28.745Z,20.75
2023-05-19T12:30:33.630Z,21.08
2023-05-19T12:33:44.080Z,20.64
2023-05-19T12:36:47.772Z,20.84
2023-05-19T12:39:53.585Z,20.59
2023-05-19T12:42:59.807Z,20.21
2023-05-19T12:46:11.552Z,20.51
2023-05-19T12:49:16.625Z,21.24
2023-05-19T12:52:23.061Z,21.62
2023-05-19T12:55:27.222Z,21.49
2023-05-19T12:58:35.277Z,21.44
2023-05-19T13:01:48.926Z,21.93
2023-05-19T13:04:58.806Z,22.91
2023-05-19T13:08:09.903Z,22.04
2023-05-19T13:11:18.069Z,21.80
2023-05-19T13:14:42.585Z,21.88
2023-05-19T13:18:06.501Z,21.89
2023-05-19T13:21:10.255Z,21.99
2023-05-19T13:24:13.566Z,21.62
2023-05-19T13:27:16.964Z,21.31
2023-05-19T13:30:22.757Z,20.78
2023-05-19T13:33:26.105Z,20.76
2023-05-19T13:36:29.662Z,20.47
2023-05-19T13:39:33.299Z,20.31
2023-05-19T13:42:36.942Z,20.14
2023-05-19T13:45:42.739Z,20.29
2023-05-19T13:48:46.354Z,19.67
2023-05-19T13:51:49.926Z,19.76
2023-05-19T13:54:54.573Z,19.95
2023-05-19T13:57:58.110Z,20.06
2023-05-19T14:01:02.810Z,20.42
2023-05-19T14:04:07.277Z,20.15
2023-05-19T14:07:10.885Z,19.95
2023-05-19T14:10:14.211Z,19.36
2023-05-19T14:13:32.557Z,19.60
2023-05-19T14:16:39.041Z,20.30
2023-05-19T14:19:42.541Z,20.92
2023-05-19T14:22:46.937Z,20.79
2023-05-19T14:25:50.252Z,20.47
2023-05-19T14:28:53.803Z,19.76
2023-05-19T14:31:58.591Z,19.47
2023-05-19T14:35:06.397Z,20.01
2023-05-19T14:38:09.766Z,20.45
2023-05-19T14:41:13.483Z,20.03
2023-05-19T14:44:16.810Z,19.55
2023-05-19T14:47:21.700Z,19.43
2023-05-19T14:50:25.757Z,19.70
2023-05-19T14:53:30.346Z,19.89
2023-05-19T14:56:33.605Z,19.76
2023-05-19T14:59:38.424Z,19.58
2023-05-19T15:02:43.565Z,19.57
2023-05-19T15:05:46.971Z,19.07
2023-05-19T15:08:50.264Z,19.02
2023-05-19T15:11:53.861Z,19.17
2023-05-19T15:14:57.757Z,19.10
2023-05-19T15:18:02.351Z,19.36
2023-05-19T15:21:06.296Z,20.05
2023-05-19T15:24:09.630Z,20.32
2023-05-19T15:27:13.015Z,19.91
2023-05-19T15:30:16.683Z,20.16
2023-05-19T15:33:21.325Z,20.76
2023-05-19T15:36:24.922Z,21.29
2023-05-19T15:39:28.335Z,21.18
2023-05-19T15:42:31.669Z,20.99
2023-05-19T15:45:35.072Z,20.19
2023-05-19T15:48:39.638Z,20.09
2023-05-19T15:51:43.446Z,19.83
2023-05-19T15:54:47.870Z,19.41
2023-05-19T15:57:54.205Z,19.03
2023-05-19T16:00:57.891Z,18.98
2023-05-19T16:04:03.914Z,18.74
2023-05-19T16:07:07.368Z,18.68
2023-05-19T16:10:11.152Z,18.76
2023-05-19T16:13:14.810Z,18.78
2023-05-19T16:16:20.540Z,18.58
2023-05-19T16:19:25.420Z,18.77
2023-05-19T16:22:30.365Z,18.75
2023-05-19T16:25:33.890Z,18.74
2023-05-19T16:28:39.628Z,18.80
2023-05-19T16:31:43.065Z,18.49
2023-05-19T16:34:51.210Z,18.23
2023-05-19T16:37:54.538Z,18.08
2023-05-19T16:41:00.795Z,18.07
2023-05-19T16:44:04.132Z,18.00
2023-05-19T16:47:07.700Z,17.96
2023-05-19T16:50:13.787Z,17.98
2023-05-19T16:53:17.434Z,17.92
2023-05-19T16:56:22.049Z,17.88
2023-05-19T16:59:25.325Z,17.72
2023-05-19T17:02:29.074Z,17.75
2023-05-19T17:05:39.321Z,17.86
2023-05-19T17:08:43.042Z,17.75
2023-05-19T17:11:46.399Z,17.63
2023-05-19T17:14:53.905Z,17.64
2023-05-19T17:18:00.904Z,17.74
2023-05-19T17:21:05.936Z,17.69
2023-05-19T17:24:12.063Z,17.72
2023-05-19T17:27:16.284Z,17.64
2023-05-19T17:30:23.274Z,17.62
2023-05-19T17:33:27.109Z,17.70
2023-05-19T17:36:32.170Z,17.69
2023-05-19T17:39:41.150Z,17.80
2023-05-19T17:42:47.935Z,17.62
2023-05-19T17:45:53.134Z,17.39
2023-05-19T17:48:59.251Z,17.30
2023-05-19T17:52:04.956Z,17.26
2023-05-19T17:55:11.079Z,17.08
2023-05-19T17:58:17.664Z,17.13
2023-05-19T18:01:24.195Z,17.15
2023-05-19T18:04:28.529Z,16.94
2023-05-19T18:07:39.167Z,16.91
2023-05-19T18:10:44.514Z,16.85
2023-05-19T18:13:51.948Z,16.84
2023-05-19T18:17:02.197Z,16.73
2023-05-19T18:20:13.346Z,16.60
2023-05-19T18:23:19.822Z,16.64
2023-05-19T18:26:23.838Z,16.62
2023-05-19T18:29:27.300Z,16.64
2023-05-19T18:32:30.919Z,16.56
2023-05-19T18:35:34.461Z,16.54
2023-05-19T18:38:40.967Z,16.46
2023-05-19T18:41:47.586Z,16.36
2023-05-19T18:44:51.251Z,16.26
2023-05-19T18:47:54.584Z,16.18
2023-05-19T18:50:58.038Z,16.10
2023-05-19T18:54:08.390Z,16.03
2023-05-19T18:57:11.586Z,16.02
2023-05-19T19:00:15.909Z,15.94
2023-05-19T19:03:19.180Z,15.89
2023-05-19T19:06:23.393Z,15.89
2023-05-19T19:09:28.230Z,15.77
2023-05-19T19:12:34.855Z,15.80
2023-05-19T19:15:39.757Z,15.71
2023-05-19T19:18:45.909Z,15.62
2023-05-19T19:21:50.841Z,15.57
2023-05-19T19:24:57.986Z,15.65
2023-05-19T19:28:07.114Z,15.46
2023-05-19T19:31:10.555Z,15.38
2023-05-19T19:34:15.041Z,15.38
2023-05-19T19:37:20.765Z,15.33
2023-05-19T19:40:25.894Z,15.24
2023-05-19T19:43:29.314Z,15.27
2023-05-19T19:46:32.759Z,15.23
2023-05-19T19:49:52.500Z,15.11
2023-05-19T19:52:55.766Z,15.10
2023-05-19T19:56:08.648Z,15.01
2023-05-19T19:59:13.143Z,14.97
2023-05-19T20:02:16.368Z,14.91
2023-05-19T20:05:20.210Z,14.88
2023-05-19T20:08:23.899Z,14.87
2023-05-19T20:11:28.634Z,14.87
2023-05-19T20:14:32.191Z,14.86
2023-05-19T20:17:35.732Z,14.90
2023-05-19T20:20:40.965Z,14.85
2023-05-19T20:23:44.285Z,14.84
2023-05-19T20:26:48.868Z,14.85
2023-05-19T20:29:52.201Z,14.82
2023-05-19T20:32:55.735Z,14.70
2023-05-19T20:35:59.175Z,14.71
2023-05-19T20:39:03.702Z,14.70
2023-05-19T20:42:08.911Z,14.69
2023-05-19T20:45:12.475Z,14.68
2023-05-19T20:48:18.273Z,14.64
2023-05-19T20:51:22.308Z,14.69
2023-05-19T20:54:26.148Z,14.43
2023-05-19T20:57:30.869Z,14.41
2023-05-19T21:00:37.301Z,14.37
2023-05-19T21:03:40.912Z,14.32
2023-05-19T21:06:44.529Z,14.28
2023-05-19T21:09:50.357Z,14.26
2023-05-19T21:12:56.251Z,14.17
2023-05-19T21:16:00.160Z,14.16
2023-05-19T21:19:03.571Z,14.12
2023-05-19T21:22:07.501Z,14.09
2023-05-19T21:25:11.276Z,14.02
2023-05-19T21:28:15.981Z,13.77
2023-05-19T21:31:20.033Z,13.71
2023-05-19T21:34:24.350Z,13.77
2023-05-19T21:37:27.644Z,13.68
2023-05-19T21:40:33.808Z,13.66
2023-05-19T21:43:38.584Z,13.64
2023-05-19T21:46:46.259Z,13.59
2023-05-19T21:49:50.145Z,13.54
2023-05-19T21:52:53.457Z,13.59
2023-05-19T21:55:58.356Z,13.60
2023-05-19T21:59:03.022Z,13.52
2023-05-19T22:02:06.866Z,13.49
2023-05-19T22:05:11.843Z,13.47
2023-05-19T22:08:16.450Z,13.37
2023-05-19T22:11:20.204Z,13.36
2023-05-19T22:14:26.649Z,13.29
2023-05-19T22:17:31.746Z,13.25
2023-05-19T22:20:35.586Z,13.22
2023-05-19T22:23:38.934Z,13.19
2023-05-19T22:26:43.122Z,13.09
2023-05-19T22:29:47.724Z,13.05
2023-05-19T22:32:51.276Z,13.10
2023-05-19T22:35:54.698Z,13.05
2023-05-19T22:38:57.980Z,13.00
2023-05-19T22:42:01.783Z,12.96
2023-05-19T22:45:07.881Z,12.97
2023-05-19T22:48:11.616Z,12.99
2023-05-19T22:51:14.906Z,12.93
2023-05-19T22:54:18.298Z,12.90
2023-05-19T22:57:21.835Z,12.91
2023-05-19T23:00:26.749Z,12.77
2023-05-19T23:03:30.053Z,12.74
2023-05-19T23:06:33.447Z,12.71
2023-05-19T23:09:36.808Z,12.63
2023-05-19T23:12:40.699Z,12.54
2023-05-19T23:15:45.299Z,12.49
2023-05-19T23:18:48.655Z,12.45
2023-05-19T23:21:52.036Z,12.43
2023-05-19T23:24:57.779Z,12.43
2023-05-19T23:28:01.162Z,12.40
2023-05-19T23:31:05.846Z,12.34
2023-05-19T23:34:09.410Z,12.26
2023-05-19T23:37:12.658Z,12.24
2023-05-19T23:40:16.858Z,12.26
2023-05-19T23:43:20.240Z,12.23
2023-05-19T23:46:24.917Z,12.11
2023-05-19T23:49:28.305Z,12.08
2023-05-19T23:52:32.787Z,12.08
2023-05-19T23:55:36.434Z,11.99
2023-05-19T23:58:39.960Z,11.93
